Time;durP1;ratioP1;P1;durP2;ratioP2;P2;SDS_P1;SDS_P2;PMS_P1;PMS_P2;Temp;Humidity;BMP_temperature;BMP_pressure;BME280_temperature;BME280_humidity;BME280_pressure;Samples;Min_cycle;Max_cycle;Signal;HPM_P1;HPM_P2
2023/08/31 00:00:29;;;;;;;17.25;8.27;;;12.80;99.90;;;;;;5018219;28;20038;-63
2023/08/31 00:02:55;;;;;;;14.35;7.18;;;12.80;99.90;;;;;;5023195;28;20028;-62
2023/08/31 00:05:21;;;;;;;15.80;7.45;;;12.80;99.90;;;;;;5034149;28;20057;-63
2023/08/31 00:07:46;;;;;;;16.15;8.02;;;12.80;99.90;;;;;;5021921;28;20041;-63
2023/08/31 00:10:12;;;;;;;16.25;7.05;;;12.80;99.90;;;;;;5036201;28;20029;-63
2023/08/31 00:12:38;;;;;;;16.38;7.22;;;12.80;99.90;;;;;;5031905;28;20026;-63
2023/08/31 00:15:07;;;;;;;15.50;7.05;;;12.80;99.90;;;;;;5035864;28;20029;-62
2023/08/31 00:17:32;;;;;;;11.88;7.40;;;12.80;99.90;;;;;;5039946;28;20115;-63
2023/08/31 00:19:58;;;;;;;16.95;6.80;;;12.80;99.90;;;;;;5037888;28;20100;-63
2023/08/31 00:22:24;;;;;;;16.38;6.75;;;12.70;99.90;;;;;;5040361;28;20048;-63
2023/08/31 00:24:51;;;;;;;11.80;5.60;;;12.80;99.90;;;;;;5041243;28;20061;-63
2023/08/31 00:27:17;;;;;;;13.80;5.68;;;12.80;99.90;;;;;;5037179;28;20033;-64
2023/08/31 00:29:49;;;;;;;13.88;6.00;;;12.70;99.90;;;;;;5046820;28;20021;-64
2023/08/31 00:32:15;;;;;;;16.13;5.75;;;12.70;99.90;;;;;;5025467;28;20128;-64
2023/08/31 00:34:40;;;;;;;12.75;5.57;;;12.80;99.90;;;;;;5039255;28;20502;-64
2023/08/31 00:37:06;;;;;;;11.55;5.68;;;12.70;99.90;;;;;;5007212;28;20084;-64
2023/08/31 00:39:33;;;;;;;14.57;4.78;;;12.70;99.90;;;;;;5037728;28;20583;-63
2023/08/31 00:41:59;;;;;;;10.05;4.90;;;12.80;99.90;;;;;;5023554;28;20033;-63
2023/08/31 00:44:24;;;;;;;12.90;4.95;;;12.80;99.90;;;;;;5026228;28;20033;-63
2023/08/31 00:46:50;;;;;;;9.98;4.63;;;12.80;99.90;;;;;;5016351;28;20055;-61
2023/08/31 00:49:17;;;;;;;9.98;4.93;;;12.80;99.90;;;;;;5005612;28;20128;-63
2023/08/31 00:51:48;;;;;;;11.73;5.05;;;12.80;99.90;;;;;;5009658;28;20546;-64
2023/08/31 00:54:16;;;;;;;9.52;4.50;;;12.80;99.90;;;;;;5031517;28;20033;-65
2023/08/31 00:56:41;;;;;;;11.30;4.90;;;12.80;99.90;;;;;;5038342;28;20026;-64
2023/08/31 00:59:07;;;;;;;18.35;5.75;;;12.80;99.90;;;;;;5029118;28;20397;-64
2023/08/31 01:01:51;;;;;;;10.65;4.97;;;12.80;99.90;;;;;;5028945;28;20159;-63
2023/08/31 01:04:31;;;;;;;9.32;5.25;;;12.70;99.90;;;;;;5038176;28;20155;-63
2023/08/31 01:07:21;;;;;;;8.65;4.70;;;12.70;99.90;;;;;;5039494;28;20036;-63
2023/08/31 01:09:56;;;;;;;11.88;5.10;;;12.70;99.90;;;;;;5032269;28;20025;-63
2023/08/31 01:12:29;;;;;;;9.60;4.57;;;12.80;99.90;;;;;;5034241;28;20032;-63
2023/08/31 01:15:02;;;;;;;13.70;4.82;;;12.80;99.90;;;;;;5038581;28;20052;-64
2023/08/31 01:17:30;;;;;;;9.02;5.03;;;12.70;99.90;;;;;;5037734;28;20566;-63
2023/08/31 01:19:59;;;;;;;8.82;5.35;;;12.70;99.90;;;;;;5038619;28;20037;-63
2023/08/31 01:22:48;;;;;;;10.90;4.40;;;12.70;99.90;;;;;;5031179;28;20090;-64
2023/08/31 01:25:13;;;;;;;14.18;5.57;;;12.60;99.90;;;;;;5040169;28;20064;-63
2023/08/31 01:27:40;;;;;;;13.38;5.45;;;12.60;99.90;;;;;;5043527;28;20037;-63
2023/08/31 01:30:06;;;;;;;12.55;5.10;;;12.60;99.90;;;;;;5020250;28;20112;-63
2023/08/31 01:32:32;;;;;;;14.30;6.22;;;12.40;99.90;;;;;;5042439;28;20113;-64
2023/08/31 01:34:58;;;;;;;14.75;5.45;;;12.40;99.90;;;;;;5043083;28;20024;-63
2023/08/31 01:37:30;;;;;;;11.23;5.43;;;12.30;99.90;;;;;;5038141;28;20060;-63
2023/08/31 01:40:02;;;;;;;11.40;5.60;;;12.20;99.90;;;;;;5039771;28;20025;-63
2023/08/31 01:42:31;;;;;;;7.32;4.80;;;12.10;99.90;;;;;;5039113;28;20083;-63
2023/08/31 01:44:58;;;;;;;12.82;5.53;;;12.10;99.90;;;;;;5027631;28;20037;-63
2023/08/31 01:47:25;;;;;;;9.48;5.90;;;12.00;99.90;;;;;;5033262;28;20032;-64
2023/08/31 01:49:51;;;;;;;12.75;6.13;;;12.00;99.90;;;;;;5038792;28;20502;-62
2023/08/31 01:52:17;;;;;;;18.70;6.50;;;11.90;99.90;;;;;;5015977;28;20091;-63
2023/08/31 01:54:42;;;;;;;15.57;6.10;;;11.90;99.90;;;;;;5035192;28;20516;-63
2023/08/31 01:57:08;;;;;;;17.65;6.03;;;11.80;99.90;;;;;;5030864;28;20558;-64
2023/08/31 01:59:35;;;;;;;10.35;6.30;;;11.80;99.90;;;;;;5033103;28;20037;-63
2023/08/31 02:02:01;;;;;;;12.40;5.65;;;11.70;99.90;;;;;;5029526;28;20041;-63
2023/08/31 02:04:26;;;;;;;14.60;6.38;;;11.60;99.90;;;;;;5028572;28;20515;-62
2023/08/31 02:06:52;;;;;;;15.38;6.00;;;11.60;99.90;;;;;;5029863;28;20029;-63
2023/08/31 02:09:17;;;;;;;10.13;5.82;;;11.60;99.90;;;;;;5020410;28;20024;-63
2023/08/31 02:11:43;;;;;;;16.60;6.75;;;11.50;99.90;;;;;;5017994;28;20029;-63
2023/08/31 02:14:08;;;;;;;17.33;6.00;;;11.50;99.90;;;;;;5032924;28;20559;-62
2023/08/31 02:16:34;;;;;;;21.85;6.75;;;11.50;99.90;;;;;;5013455;28;20399;-64
2023/08/31 02:19:00;;;;;;;12.55;5.93;;;11.40;99.90;;;;;;5035812;28;20033;-63
2023/08/31 02:21:25;;;;;;;10.45;6.88;;;11.40;99.90;;;;;;5027853;28;20025;-63
2023/08/31 02:23:51;;;;;;;10.40;6.70;;;11.40;99.90;;;;;;5034864;28;20103;-62
2023/08/31 02:26:17;;;;;;;16.55;6.70;;;11.30;99.90;;;;;;5020441;28;20395;-63
2023/08/31 02:28:42;;;;;;;11.07;7.20;;;11.40;99.90;;;;;;5033528;28;20026;-63
2023/08/31 02:31:10;;;;;;;23.90;7.40;;;11.40;99.90;;;;;;5030266;28;20036;-63
2023/08/31 02:33:36;;;;;;;20.45;6.65;;;11.40;99.90;;;;;;5029855;28;20413;-63
2023/08/31 02:36:01;;;;;;;17.90;7.25;;;11.50;99.90;;;;;;5037947;28;20029;-63
2023/08/31 02:38:27;;;;;;;18.42;7.38;;;11.50;99.90;;;;;;5028525;28;20024;-63
2023/08/31 02:40:53;;;;;;;10.75;6.10;;;11.50;99.90;;;;;;5033033;28;20079;-63
2023/08/31 02:43:18;;;;;;;19.13;6.93;;;11.50;99.90;;;;;;5035126;28;20035;-63
2023/08/31 02:45:44;;;;;;;17.20;6.57;;;11.40;99.90;;;;;;5024820;28;20045;-63
2023/08/31 02:48:10;;;;;;;16.08;6.95;;;11.40;99.90;;;;;;5031554;28;20039;-61
2023/08/31 02:50:36;;;;;;;15.90;6.55;;;11.40;99.90;;;;;;5031405;28;20047;-65
2023/08/31 02:53:01;;;;;;;17.08;6.40;;;11.40;99.90;;;;;;5031557;28;20017;-64
2023/08/31 02:55:27;;;;;;;13.65;6.13;;;11.30;99.90;;;;;;5033231;28;20041;-63
2023/08/31 02:57:53;;;;;;;16.38;8.25;;;11.30;99.90;;;;;;5025266;28;20029;-63
2023/08/31 03:00:21;;;;;;;17.33;5.90;;;11.20;99.90;;;;;;5028757;28;20037;-63
2023/08/31 03:02:53;;;;;;;16.02;5.82;;;11.20;99.90;;;;;;5030949;28;20025;-62
2023/08/31 03:05:21;;;;;;;12.38;5.65;;;11.20;99.90;;;;;;5031502;28;20033;-62
2023/08/31 03:07:46;;;;;;;20.08;6.07;;;11.20;99.90;;;;;;5041045;28;20029;-62
2023/08/31 03:10:12;;;;;;;10.80;5.88;;;11.20;99.90;;;;;;5039181;28;20541;-62
2023/08/31 03:12:38;;;;;;;10.95;6.03;;;11.20;99.90;;;;;;5032227;28;20698;-63
2023/08/31 03:15:05;;;;;;;11.95;5.18;;;11.20;99.90;;;;;;5040377;28;20024;-61
2023/08/31 03:17:31;;;;;;;8.13;4.82;;;11.20;99.90;;;;;;5039476;28;20116;-63
2023/08/31 03:19:57;;;;;;;17.17;6.43;;;11.20;99.90;;;;;;5032675;28;20506;-63
2023/08/31 03:22:22;;;;;;;13.15;5.13;;;11.10;99.90;;;;;;5038727;28;20025;-63
2023/08/31 03:24:48;;;;;;;17.38;5.78;;;11.10;99.90;;;;;;5035702;28;20104;-64
2023/08/31 03:27:15;;;;;;;13.05;5.25;;;11.10;99.90;;;;;;5035382;28;20496;-63
2023/08/31 03:29:41;;;;;;;10.43;5.85;;;11.10;99.90;;;;;;5039468;28;20437;-63
2023/08/31 03:32:07;;;;;;;17.55;5.88;;;11.10;99.90;;;;;;5023601;28;20591;-63
2023/08/31 03:34:32;;;;;;;14.05;6.20;;;11.10;99.90;;;;;;5035360;28;20119;-63
2023/08/31 03:36:59;;;;;;;9.60;5.57;;;11.20;99.90;;;;;;5033377;28;20041;-62
2023/08/31 03:39:25;;;;;;;17.50;6.82;;;11.30;99.90;;;;;;5021561;28;20026;-63
2023/08/31 03:41:50;;;;;;;15.52;6.43;;;11.40;99.90;;;;;;5039469;28;20499;-63
2023/08/31 03:44:16;;;;;;;13.98;5.90;;;11.40;99.90;;;;;;5040214;28;20060;-63
2023/08/31 03:46:43;;;;;;;16.10;6.22;;;11.50;99.90;;;;;;5031439;28;20042;-64
2023/08/31 03:49:09;;;;;;;13.60;6.28;;;11.60;99.90;;;;;;5031747;28;20026;-64
2023/08/31 03:51:35;;;;;;;11.57;6.70;;;11.60;99.90;;;;;;5020733;28;20025;-63
2023/08/31 03:54:01;;;;;;;11.68;6.97;;;11.70;99.90;;;;;;5029609;28;20037;-63
2023/08/31 03:56:26;;;;;;;12.07;7.07;;;11.80;99.90;;;;;;5030314;28;20033;-63
2023/08/31 03:58:52;;;;;;;15.77;6.40;;;11.90;99.90;;;;;;5030663;28;20105;-63
2023/08/31 04:01:18;;;;;;;20.25;7.72;;;11.90;99.90;;;;;;5018902;28;20487;-63
2023/08/31 04:03:43;;;;;;;19.08;7.45;;;12.00;99.90;;;;;;5007484;28;20502;-63
2023/08/31 04:06:09;;;;;;;10.65;7.53;;;12.00;99.90;;;;;;5019361;28;20033;-63
2023/08/31 04:08:34;;;;;;;14.52;7.13;;;12.00;99.90;;;;;;5023924;28;20407;-63
2023/08/31 04:11:00;;;;;;;17.83;7.35;;;12.10;99.90;;;;;;5031169;28;20033;-62
2023/08/31 04:13:26;;;;;;;9.05;6.38;;;12.10;99.90;;;;;;5017509;28;20049;-62
2023/08/31 04:15:53;;;;;;;15.38;7.63;;;12.10;99.90;;;;;;5031688;28;20385;-63
2023/08/31 04:18:19;;;;;;;10.90;7.00;;;12.10;99.90;;;;;;5019464;28;20048;-63
2023/08/31 04:20:53;;;;;;;12.18;7.03;;;12.00;99.90;;;;;;5012738;28;20041;-64
2023/08/31 04:23:19;;;;;;;11.15;6.70;;;12.00;99.90;;;;;;5028318;28;20049;-63
2023/08/31 04:25:46;;;;;;;13.60;7.22;;;12.00;99.90;;;;;;5019990;28;20119;-63
2023/08/31 04:28:11;;;;;;;14.25;6.80;;;11.90;99.90;;;;;;5036825;28;20057;-64
2023/08/31 04:30:37;;;;;;;13.75;6.68;;;11.80;99.90;;;;;;5030719;28;20498;-63
2023/08/31 04:33:04;;;;;;;15.80;6.60;;;11.80;99.90;;;;;;5022309;28;20025;-63
2023/08/31 04:35:31;;;;;;;17.15;6.43;;;11.70;99.90;;;;;;5035710;28;20503;-60
2023/08/31 04:37:57;;;;;;;12.25;6.68;;;11.60;99.90;;;;;;5030928;28;20523;-63
2023/08/31 04:40:22;;;;;;;14.43;6.38;;;11.60;99.90;;;;;;5035851;28;20160;-62
2023/08/31 04:42:48;;;;;;;13.05;6.38;;;11.50;99.90;;;;;;5033195;28;20131;-63
2023/08/31 04:45:14;;;;;;;15.25;6.55;;;11.40;99.90;;;;;;5033880;28;20036;-62
2023/08/31 04:47:39;;;;;;;12.23;6.35;;;11.30;99.90;;;;;;5032128;28;20030;-63
2023/08/31 04:50:06;;;;;;;12.93;6.85;;;11.30;99.90;;;;;;5036253;28;20025;-63
2023/08/31 04:52:32;;;;;;;17.63;7.88;;;11.30;99.90;;;;;;5014487;28;20541;-63
2023/08/31 04:55:00;;;;;;;14.48;7.15;;;11.30;99.90;;;;;;5036546;28;20060;-62
2023/08/31 04:57:26;;;;;;;9.40;5.85;;;11.20;99.90;;;;;;5037256;28;20037;-66
2023/08/31 04:59:51;;;;;;;12.50;6.50;;;11.20;99.90;;;;;;5038617;28;20028;-64
2023/08/31 05:02:17;;;;;;;13.65;8.02;;;11.20;99.90;;;;;;5036964;28;20075;-64
2023/08/31 05:04:42;;;;;;;11.25;6.78;;;11.10;99.90;;;;;;5044268;28;20103;-63
2023/08/31 05:07:08;;;;;;;10.88;6.97;;;11.20;99.90;;;;;;5033356;28;20183;-64
2023/08/31 05:09:34;;;;;;;15.82;6.53;;;11.10;99.90;;;;;;5029346;28;20107;-63
2023/08/31 05:12:02;;;;;;;10.82;6.97;;;11.10;99.90;;;;;;5036505;28;20586;-63
2023/08/31 05:14:28;;;;;;;17.52;7.90;;;11.10;99.90;;;;;;5035541;28;20486;-63
2023/08/31 05:16:54;;;;;;;11.45;7.07;;;11.10;99.90;;;;;;5035837;28;20051;-57
2023/08/31 05:19:21;;;;;;;15.30;7.03;;;11.10;99.90;;;;;;5041717;28;20055;-56
2023/08/31 05:21:46;;;;;;;14.25;6.88;;;11.10;99.90;;;;;;5040438;28;20112;-56
2023/08/31 05:24:12;;;;;;;11.60;6.60;;;11.10;99.90;;;;;;5037941;28;20079;-56
2023/08/31 05:26:38;;;;;;;19.77;7.32;;;11.10;99.90;;;;;;5037100;28;20083;-56
2023/08/31 05:29:04;;;;;;;12.63;7.20;;;11.10;99.90;;;;;;5026538;28;20023;-57
2023/08/31 05:31:30;;;;;;;15.98;7.18;;;11.20;99.90;;;;;;5034780;28;20029;-53
2023/08/31 05:33:56;;;;;;;11.85;7.28;;;11.20;99.90;;;;;;5026921;28;20505;-56
2023/08/31 05:36:21;;;;;;;18.65;8.55;;;11.20;99.90;;;;;;5031195;28;20159;-57
2023/08/31 05:38:47;;;;;;;16.13;8.10;;;11.20;99.90;;;;;;5024725;28;20435;-57
2023/08/31 05:41:13;;;;;;;11.85;6.63;;;11.30;99.90;;;;;;5043093;28;20328;-55
2023/08/31 05:43:41;;;;;;;14.90;7.40;;;11.30;99.90;;;;;;5036671;28;20108;-56
2023/08/31 05:46:08;;;;;;;19.40;7.40;;;11.30;99.90;;;;;;5038647;28;20021;-55
2023/08/31 05:48:34;;;;;;;14.73;7.35;;;11.30;99.90;;;;;;5047727;28;20033;-55
2023/08/31 05:51:00;;;;;;;13.15;7.85;;;11.40;99.90;;;;;;5043395;28;20021;-55
2023/08/31 05:53:26;;;;;;;12.07;8.05;;;11.40;99.90;;;;;;5045403;28;20426;-52
2023/08/31 05:55:51;;;;;;;18.38;8.55;;;11.40;99.90;;;;;;5038129;28;20033;-56
2023/08/31 05:58:17;;;;;;;10.23;6.82;;;11.60;99.90;;;;;;5032766;28;20033;-56
2023/08/31 06:00:42;;;;;;;18.73;7.82;;;11.60;99.90;;;;;;5032480;28;20032;-55
2023/08/31 06:03:10;;;;;;;16.90;7.93;;;11.70;99.90;;;;;;5051652;28;20111;-55
2023/08/31 06:05:35;;;;;;;18.10;8.68;;;11.70;99.90;;;;;;5020060;28;20380;-57
2023/08/31 06:08:01;;;;;;;20.52;7.65;;;11.70;99.90;;;;;;5043024;28;20395;-55
2023/08/31 06:10:26;;;;;;;21.33;8.30;;;11.80;99.90;;;;;;5039183;28;20025;-55
2023/08/31 06:12:52;;;;;;;13.68;8.07;;;11.90;99.90;;;;;;5020290;28;20033;-55
2023/08/31 06:15:18;;;;;;;19.10;8.35;;;12.00;99.90;;;;;;5037505;28;20112;-56
2023/08/31 06:17:43;;;;;;;18.23;8.40;;;12.10;99.90;;;;;;5038162;28;20056;-52
2023/08/31 06:20:10;;;;;;;17.13;8.00;;;12.30;99.90;;;;;;5023107;28;20052;-53
2023/08/31 06:22:35;;;;;;;15.68;6.63;;;12.40;99.90;;;;;;5022315;28;20549;-53
2023/08/31 06:25:02;;;;;;;15.20;7.13;;;12.40;99.90;;;;;;5039935;28;20119;-53
2023/08/31 06:27:28;;;;;;;12.52;6.13;;;12.50;99.90;;;;;;5021031;28;20037;-56
2023/08/31 06:29:53;;;;;;;10.88;5.90;;;12.60;99.90;;;;;;5044736;28;20044;-55
2023/08/31 06:32:19;;;;;;;16.85;5.22;;;12.70;99.90;;;;;;5047287;28;20045;-54
2023/08/31 06:34:45;;;;;;;14.00;5.65;;;12.70;99.90;;;;;;5018967;28;20049;-57
2023/08/31 06:37:11;;;;;;;15.40;4.85;;;12.80;99.90;;;;;;5041097;28;20021;-56
2023/08/31 06:39:36;;;;;;;10.77;3.60;;;12.90;99.90;;;;;;5042910;28;20130;-51
2023/08/31 06:42:03;;;;;;;11.43;4.38;;;13.10;99.90;;;;;;5053763;28;20414;-54
2023/08/31 06:44:29;;;;;;;9.63;3.70;;;13.30;99.90;;;;;;5034580;28;20095;-57
2023/08/31 06:46:55;;;;;;;9.07;3.78;;;13.40;99.90;;;;;;5034965;28;20036;-53
2023/08/31 06:49:23;;;;;;;8.60;3.95;;;13.40;99.90;;;;;;5034211;28;20040;-55
2023/08/31 06:51:49;;;;;;;11.43;3.03;;;13.40;99.90;;;;;;5038251;28;20082;-56
2023/08/31 06:54:14;;;;;;;8.00;3.15;;;13.50;99.90;;;;;;5034298;28;20037;-54
2023/08/31 06:56:40;;;;;;;8.23;3.05;;;13.60;99.90;;;;;;5033962;28;20053;-55
2023/08/31 06:59:05;;;;;;;16.13;4.53;;;13.70;99.90;;;;;;5038166;28;20028;-53
2023/08/31 07:01:32;;;;;;;6.00;2.38;;;13.70;99.90;;;;;;5037324;28;20055;-53
2023/08/31 07:03:58;;;;;;;8.75;2.60;;;13.80;99.90;;;;;;5018399;28;20060;-53
2023/08/31 07:06:23;;;;;;;15.02;3.33;;;13.80;99.90;;;;;;5036491;28;20052;-54
2023/08/31 07:08:50;;;;;;;9.13;2.92;;;13.90;99.90;;;;;;5032418;28;20026;-53
2023/08/31 07:11:16;;;;;;;12.50;3.13;;;13.90;99.90;;;;;;5038987;28;20037;-53
2023/08/31 07:13:42;;;;;;;5.18;2.42;;;14.00;99.90;;;;;;5041470;28;20013;-57
2023/08/31 07:16:07;;;;;;;9.68;3.28;;;14.00;99.90;;;;;;5038331;28;20106;-53
2023/08/31 07:18:33;;;;;;;8.52;2.83;;;14.10;99.90;;;;;;5044642;28;20036;-57
2023/08/31 07:20:58;;;;;;;7.28;2.58;;;14.10;99.90;;;;;;5017512;28;20028;-55
2023/08/31 07:23:24;;;;;;;7.80;3.05;;;14.10;99.90;;;;;;5030820;28;20526;-55
2023/08/31 07:25:50;;;;;;;6.75;2.75;;;14.20;99.90;;;;;;5040218;28;20052;-58
2023/08/31 07:28:15;;;;;;;9.23;2.13;;;14.30;99.90;;;;;;5030551;28;20404;-59
2023/08/31 07:30:41;;;;;;;10.50;2.60;;;14.40;99.90;;;;;;5020480;28;20056;-56
2023/08/31 07:33:07;;;;;;;10.38;2.33;;;14.50;99.90;;;;;;5029659;28;20040;-57
2023/08/31 07:35:32;;;;;;;6.25;2.20;;;14.50;99.90;;;;;;5038111;28;20029;-52
2023/08/31 07:37:58;;;;;;;9.32;2.42;;;14.60;99.90;;;;;;5041961;28;20037;-56
2023/08/31 07:40:25;;;;;;;15.50;2.88;;;14.60;99.90;;;;;;5032009;28;20159;-56
2023/08/31 07:42:51;;;;;;;10.52;2.72;;;14.60;99.90;;;;;;5030258;28;20044;-58
2023/08/31 07:45:17;;;;;;;3.75;2.10;;;14.80;99.90;;;;;;5022447;28;20065;-55
2023/08/31 07:47:43;;;;;;;7.38;2.22;;;14.90;99.90;;;;;;5039501;28;20029;-56
2023/08/31 07:50:09;;;;;;;14.07;2.20;;;15.00;99.90;;;;;;5024346;28;20037;-57
2023/08/31 07:52:34;;;;;;;7.75;2.35;;;15.20;99.90;;;;;;5028918;28;20108;-57
2023/08/31 07:55:00;;;;;;;5.05;2.13;;;15.30;99.90;;;;;;5040905;28;20139;-55
2023/08/31 07:57:26;;;;;;;7.85;1.70;;;15.40;99.90;;;;;;5030201;28;20029;-58
2023/08/31 07:59:51;;;;;;;8.77;2.33;;;15.50;99.90;;;;;;5011403;28;20523;-55
2023/08/31 08:02:17;;;;;;;6.93;1.70;;;15.40;99.90;;;;;;5042110;28;20490;-57
2023/08/31 08:04:45;;;;;;;11.40;2.40;;;15.50;99.90;;;;;;5032316;28;20030;-55
2023/08/31 08:07:10;;;;;;;6.30;1.85;;;15.50;99.90;;;;;;5025840;28;20036;-54
2023/08/31 08:09:36;;;;;;;8.35;2.13;;;15.50;99.90;;;;;;5038893;28;20041;-55
2023/08/31 08:12:02;;;;;;;5.28;2.25;;;15.50;99.90;;;;;;5036501;28;20112;-57
2023/08/31 08:14:28;;;;;;;6.78;1.88;;;15.40;99.90;;;;;;5028240;28;20399;-54
2023/08/31 08:16:54;;;;;;;9.20;2.20;;;15.40;99.90;;;;;;5022112;28;20521;-58
2023/08/31 08:19:23;;;;;;;6.57;2.10;;;15.40;99.90;;;;;;5029211;28;20029;-56
2023/08/31 08:21:50;;;;;;;7.90;2.38;;;15.50;99.90;;;;;;5043817;28;20063;-56
2023/08/31 08:24:15;;;;;;;7.00;2.20;;;15.50;99.90;;;;;;5041726;28;20038;-53
2023/08/31 08:26:41;;;;;;;7.15;1.83;;;15.60;99.90;;;;;;5036911;28;20028;-55
2023/08/31 08:29:06;;;;;;;7.38;2.38;;;15.60;99.90;;;;;;5044436;28;20052;-57
2023/08/31 08:31:32;;;;;;;7.97;2.30;;;15.70;99.90;;;;;;5040012;28;20021;-53
2023/08/31 08:33:58;;;;;;;8.02;2.20;;;15.80;99.90;;;;;;5041713;28;20025;-57
2023/08/31 08:36:23;;;;;;;3.38;1.15;;;16.00;99.90;;;;;;5042679;28;20104;-54
2023/08/31 08:38:49;;;;;;;5.28;1.33;;;16.10;99.90;;;;;;5031259;28;20372;-57
2023/08/31 08:41:19;;;;;;;7.78;1.88;;;16.10;99.90;;;;;;5043328;28;20044;-56
2023/08/31 08:43:48;;;;;;;8.07;1.52;;;16.20;99.90;;;;;;5022584;28;20712;-56
2023/08/31 08:46:14;;;;;;;7.00;1.88;;;16.30;99.90;;;;;;5036947;28;20029;-57
2023/08/31 08:48:40;;;;;;;5.88;1.88;;;16.40;99.90;;;;;;5022922;28;20376;-57
2023/08/31 08:51:07;;;;;;;4.03;1.55;;;16.50;99.90;;;;;;5024690;28;20020;-57
2023/08/31 08:53:34;;;;;;;9.18;1.73;;;16.60;99.90;;;;;;5037678;28;20025;-57
2023/08/31 08:55:59;;;;;;;4.93;1.88;;;16.70;99.90;;;;;;5015304;28;20436;-55
2023/08/31 08:58:25;;;;;;;7.78;1.85;;;16.80;99.90;;;;;;5010349;28;20146;-53
2023/08/31 09:00:54;;;;;;;6.28;1.45;;;16.80;99.90;;;;;;5043300;28;20487;-56
2023/08/31 09:03:19;;;;;;;9.68;1.65;;;16.70;99.90;;;;;;5039039;28;20464;-53
2023/08/31 09:05:45;;;;;;;4.85;1.35;;;16.70;99.90;;;;;;5039052;28;20052;-54
2023/08/31 09:08:12;;;;;;;5.68;1.25;;;16.70;99.90;;;;;;5028709;28;20059;-54
2023/08/31 09:10:43;;;;;;;6.78;1.70;;;16.80;99.90;;;;;;5026158;28;20044;-53
2023/08/31 09:13:18;;;;;;;7.43;1.88;;;16.80;99.90;;;;;;5026041;28;20021;-57
2023/08/31 09:15:48;;;;;;;4.93;1.63;;;16.90;99.90;;;;;;5028605;28;20569;-54
2023/08/31 09:18:14;;;;;;;7.93;1.40;;;17.10;99.90;;;;;;5043081;28;20142;-53
2023/08/31 09:20:47;;;;;;;3.20;1.55;;;17.20;99.90;;;;;;5038258;28;20087;-53
2023/08/31 09:23:14;;;;;;;3.78;1.35;;;17.40;99.90;;;;;;5021874;28;20060;-53
2023/08/31 09:25:48;;;;;;;10.50;1.75;;;17.60;99.90;;;;;;5039963;28;20021;-54
2023/08/31 09:28:15;;;;;;;3.30;1.30;;;17.80;99.90;;;;;;5027077;28;21110;-58
2023/08/31 09:30:45;;;;;;;6.78;1.55;;;18.00;99.90;;;;;;5039456;28;20025;-53
2023/08/31 09:33:18;;;;;;;6.82;2.03;;;18.00;99.90;;;;;;5044503;28;20033;-55
2023/08/31 09:35:59;;;;;;;6.57;1.23;;;18.00;99.90;;;;;;5019454;28;20507;-54
2023/08/31 09:38:25;;;;;;;5.95;1.50;;;18.00;99.90;;;;;;5042293;28;20484;-56
2023/08/31 09:40:51;;;;;;;4.28;1.40;;;18.10;99.90;;;;;;5037341;28;20083;-53
2023/08/31 09:43:23;;;;;;;3.15;1.48;;;18.20;99.90;;;;;;5033629;28;20030;-56
2023/08/31 09:45:50;;;;;;;2.83;1.25;;;18.30;99.90;;;;;;5028841;28;20025;-58
2023/08/31 09:48:17;;;;;;;5.97;1.52;;;18.60;99.90;;;;;;5038614;28;20456;-55
2023/08/31 09:50:46;;;;;;;6.72;2.05;;;18.70;99.90;;;;;;5027131;28;20297;-56
2023/08/31 09:53:12;;;;;;;3.35;1.30;;;18.70;99.90;;;;;;5021716;28;20014;-57
2023/08/31 09:55:40;;;;;;;4.05;1.63;;;18.70;99.90;;;;;;5033202;28;20444;-54
2023/08/31 09:58:07;;;;;;;7.45;1.40;;;18.90;99.90;;;;;;5038745;28;20028;-58
2023/08/31 10:00:36;;;;;;;4.35;1.30;;;19.00;99.90;;;;;;5014923;28;20024;-55
2023/08/31 10:03:05;;;;;;;4.20;1.40;;;19.10;99.90;;;;;;5032668;28;20028;-56
2023/08/31 10:05:32;;;;;;;5.97;1.10;;;19.00;99.90;;;;;;5026919;28;20076;-55
2023/08/31 10:07:58;;;;;;;5.57;1.40;;;18.90;99.90;;;;;;5011358;28;20056;-57
2023/08/31 10:10:24;;;;;;;6.38;1.83;;;18.80;99.90;;;;;;5021053;28;20029;-55
2023/08/31 10:12:51;;;;;;;4.53;1.40;;;18.80;99.90;;;;;;5044505;28;20395;-56
2023/08/31 10:15:18;;;;;;;2.88;1.10;;;19.10;99.90;;;;;;5030277;28;20071;-56
2023/08/31 10:17:44;;;;;;;9.73;1.60;;;19.20;99.90;;;;;;5013688;28;20033;-57
2023/08/31 10:20:12;;;;;;;9.05;1.27;;;19.10;99.90;;;;;;5039023;28;20037;-56
2023/08/31 10:22:37;;;;;;;5.20;1.40;;;19.30;99.90;;;;;;5024169;28;20060;-52
2023/08/31 10:25:08;;;;;;;3.30;1.10;;;19.20;99.90;;;;;;5031921;28;20373;-55
2023/08/31 10:27:39;;;;;;;3.28;1.30;;;19.10;99.90;;;;;;5036210;28;20033;-56
2023/08/31 10:30:23;;;;;;;6.80;1.83;;;19.00;99.90;;;;;;5039467;28;20168;-57
2023/08/31 10:33:04;;;;;;;6.70;1.10;;;18.90;99.90;;;;;;5036159;28;20036;-54
2023/08/31 10:35:50;;;;;;;3.10;1.10;;;19.00;99.90;;;;;;5040958;28;20049;-57
2023/08/31 10:38:15;;;;;;;6.45;1.20;;;19.20;99.90;;;;;;5039759;28;20053;-58
2023/08/31 10:40:41;;;;;;;6.70;1.45;;;19.20;99.90;;;;;;5036771;28;20059;-56
2023/08/31 10:43:16;;;;;;;2.50;0.90;;;19.10;99.90;;;;;;5036952;28;20394;-59
2023/08/31 10:45:45;;;;;;;4.15;1.10;;;19.10;99.90;;;;;;5038840;28;20021;-54
2023/08/31 10:48:11;;;;;;;5.97;1.30;;;19.40;99.90;;;;;;5043184;28;20136;-56
2023/08/31 10:50:47;;;;;;;3.47;1.95;;;19.80;99.90;;;;;;5030972;28;20035;-56
2023/08/31 10:53:13;;;;;;;2.47;1.00;;;20.10;99.90;;;;;;5036114;28;20026;-54
2023/08/31 10:55:54;;;;;;;6.72;1.58;;;19.90;99.90;;;;;;5024900;28;20056;-56
2023/08/31 10:58:19;;;;;;;8.30;1.77;;;19.60;99.90;;;;;;5040159;28;20037;-54
2023/08/31 11:00:52;;;;;;;5.65;2.00;;;19.50;99.90;;;;;;5024357;28;20032;-55
2023/08/31 11:03:18;;;;;;;7.05;1.80;;;19.40;99.90;;;;;;5041940;28;20037;-57
2023/08/31 11:05:53;;;;;;;5.40;2.15;;;19.70;99.90;;;;;;5030704;28;20044;-57
2023/08/31 11:08:23;;;;;;;8.70;1.90;;;19.80;99.90;;;;;;5040169;28;20053;-55
2023/08/31 11:10:49;;;;;;;5.15;1.83;;;20.30;99.90;;;;;;5027583;28;20029;-58
2023/08/31 11:13:24;;;;;;;4.03;1.95;;;20.40;99.90;;;;;;5035026;28;20025;-58
2023/08/31 11:15:50;;;;;;;4.53;1.50;;;20.40;99.90;;;;;;5035098;28;20083;-58
2023/08/31 11:18:17;;;;;;;5.05;1.70;;;20.00;99.90;;;;;;5020872;28;20078;-54
2023/08/31 11:20:43;;;;;;;6.57;2.10;;;19.80;99.90;;;;;;5039717;28;20028;-57
2023/08/31 11:23:09;;;;;;;7.20;2.20;;;19.60;99.90;;;;;;5021554;28;20392;-57
2023/08/31 11:25:35;;;;;;;6.85;1.90;;;19.30;99.90;;;;;;5035712;28;20035;-59
2023/08/31 11:28:08;;;;;;;6.03;2.00;;;19.30;99.90;;;;;;5036232;28;20395;-57
2023/08/31 11:30:34;;;;;;;5.95;1.85;;;19.00;99.90;;;;;;5033759;28;20017;-56
2023/08/31 11:33:05;;;;;;;9.80;1.83;;;18.60;99.90;;;;;;5036919;28;20033;-57
2023/08/31 11:35:35;;;;;;;8.63;2.13;;;18.50;99.90;;;;;;5042285;28;20025;-57
2023/08/31 11:38:01;;;;;;;7.22;2.53;;;18.00;99.90;;;;;;5032118;28;20033;-57
2023/08/31 11:40:27;;;;;;;9.20;2.28;;;17.60;99.90;;;;;;5028583;28;20064;-56
2023/08/31 11:42:53;;;;;;;6.10;1.85;;;17.50;99.90;;;;;;5013047;28;20069;-58
2023/08/31 11:45:20;;;;;;;10.48;2.42;;;17.40;99.90;;;;;;5031247;28;20029;-56
2023/08/31 11:47:48;;;;;;;8.35;2.80;;;17.30;99.90;;;;;;5048094;28;20033;-55
2023/08/31 11:50:14;;;;;;;10.70;2.35;;;17.20;99.90;;;;;;5041183;28;20033;-57
2023/08/31 11:52:41;;;;;;;7.45;1.98;;;17.00;99.90;;;;;;5043529;28;20037;-54
2023/08/31 11:55:14;;;;;;;5.53;2.10;;;17.00;99.90;;;;;;5026075;28;20398;-57
2023/08/31 11:57:40;;;;;;;7.05;1.92;;;17.10;99.90;;;;;;5039697;28;20029;-56
2023/08/31 12:00:06;;;;;;;3.80;2.30;;;17.10;99.90;;;;;;5041566;28;20495;-57
2023/08/31 12:02:39;;;;;;;4.40;2.03;;;17.10;99.90;;;;;;5036416;28;20036;-54
2023/08/31 12:05:05;;;;;;;3.47;1.92;;;17.30;99.90;;;;;;5029080;28;20037;-55
2023/08/31 12:07:31;;;;;;;7.35;2.78;;;17.60;99.90;;;;;;5033364;28;20037;-54
2023/08/31 12:10:05;;;;;;;9.60;2.38;;;18.40;99.90;;;;;;5037117;28;20387;-56
2023/08/31 12:12:32;;;;;;;9.90;1.85;;;19.30;99.90;;;;;;5019964;28;20034;-54
2023/08/31 12:15:03;;;;;;;8.55;1.67;;;19.80;99.90;;;;;;5035782;28;20037;-57
2023/08/31 12:17:29;;;;;;;3.47;1.50;;;19.80;99.90;;;;;;5037328;28;20033;-55
2023/08/31 12:20:04;;;;;;;4.40;1.80;;;19.50;99.90;;;;;;5021508;28;20075;-54
2023/08/31 12:22:30;;;;;;;4.70;1.77;;;19.40;99.90;;;;;;5039359;28;20588;-54
2023/08/31 12:24:55;;;;;;;6.43;2.33;;;19.20;99.90;;;;;;5042406;28;20034;-54
2023/08/31 12:27:21;;;;;;;6.68;2.15;;;19.10;99.90;;;;;;5035460;28;20573;-56
2023/08/31 12:29:46;;;;;;;6.05;2.20;;;19.20;99.90;;;;;;5043088;28;20027;-57
2023/08/31 12:32:12;;;;;;;9.40;2.00;;;19.10;99.90;;;;;;5046896;28;20032;-58
2023/08/31 12:34:37;;;;;;;9.20;1.98;;;19.10;99.90;;;;;;5012178;28;20509;-56
2023/08/31 12:37:04;;;;;;;8.40;1.80;;;19.10;99.90;;;;;;5038249;28;20096;-55
2023/08/31 12:39:30;;;;;;;5.18;1.92;;;18.90;99.90;;;;;;5042976;28;20052;-54